Koekelare, Belgium
Current Conditions -  °F | °C
As of 10:50 PM on Friday 24 Oct 2014 (Local Time) from EBOS Reporting Station
Drizzle Drizzle  
Wind Chill: 54°   Ceiling: 800
Heat Index: 54°   Visibility: 3mi
Dew Point: 50°   Wind: 12mph
Humidity: 88%   Direction: 190°S
Pressure: 29.97"   Gusts: NA
Location:  51.09°N, 2.98°E
Report Text: EBOS 242050Z 19010KT 5000 -DZ SCT005 BKN008 12/10 Q1015 TEMPO 2000 DZRA BKN004
Loading
Personal Weather Stations






























Interactive Weather Map
Tropical Storm Tracking
New forecast layout! Learn more

10-Day Weather Forecast

Advertisements
Track Severe Weather on mobile